Time;durP1;ratioP1;P1;durP2;ratioP2;P2;SDS_P1;SDS_P2;PMS_P1;PMS_P2;Temp;Humidity;BMP_temperature;BMP_pressure;BME280_temperature;BME280_humidity;BME280_pressure;Samples;Min_cycle;Max_cycle;Signal;HPM_P1;HPM_P2
2022/09/17 00:00:54;;;;;;;13.55;1.85;;;11.50;1.00;;;;;;5032213;28;20049;-39
2022/09/17 00:03:21;;;;;;;14.43;2.60;;;11.40;1.00;;;;;;5033430;28;20125;-39
2022/09/17 00:05:47;;;;;;;16.23;3.42;;;11.60;99.90;;;;;;5033396;28;20046;-39
2022/09/17 00:08:13;;;;;;;14.30;2.67;;;11.60;1.00;;;;;;5033293;28;20055;-39
2022/09/17 00:10:43;;;;;;;11.70;2.05;;;11.50;99.90;;;;;;5031891;28;20483;-39
2022/09/17 00:13:10;;;;;;;16.92;2.85;;;11.30;99.90;;;;;;5032474;28;20049;-39
2022/09/17 00:15:43;;;;;;;14.73;2.90;;;11.20;1.00;;;;;;5033234;28;20041;-39
2022/09/17 00:18:09;;;;;;;;;;;11.10;99.90;;;;;;5033680;28;20112;-39
2022/09/17 00:20:43;;;;;;;15.65;2.90;;;11.10;99.90;;;;;;5033228;28;19929;-39
2022/09/17 00:23:10;;;;;;;11.82;2.35;;;11.30;99.90;;;;;;5033239;28;20403;-39
2022/09/17 00:25:43;;;;;;;13.27;2.28;;;11.20;1.00;;;;;;5033268;28;20081;-40
2022/09/17 00:28:10;;;;;;;18.15;2.33;;;11.10;40.90;;;;;;5031928;28;20053;-40
2022/09/17 00:30:40;;;;;;;21.75;2.83;;;11.00;99.90;;;;;;5033772;28;20128;-41
2022/09/17 00:33:05;;;;;;;19.40;2.80;;;10.80;99.90;;;;;;5033027;28;20060;-40
2022/09/17 00:35:31;;;;;;;21.48;2.80;;;10.60;99.90;;;;;;5034633;28;20407;-41
2022/09/17 00:37:57;;;;;;;23.13;3.20;;;10.60;99.90;;;;;;5036910;28;20104;-43
2022/09/17 00:40:22;;;;;;;16.65;3.05;;;10.40;1.00;;;;;;5020232;28;20037;-40
2022/09/17 00:42:48;;;;;;;17.25;2.38;;;10.20;1.00;;;;;;5036644;28;20072;-42
2022/09/17 00:45:14;;;;;;;25.85;4.45;;;9.90;1.00;;;;;;5036909;28;20055;-42
2022/09/17 00:47:45;;;;;;;20.65;2.60;;;9.90;1.00;;;;;;5037137;28;20042;-42
2022/09/17 00:50:26;;;;;;;19.58;2.80;;;10.20;99.90;;;;;;5037515;28;20103;-43
2022/09/17 00:52:57;;;;;;;25.85;2.92;;;10.30;1.00;;;;;;5036406;28;20171;-44
2022/09/17 00:55:28;;;;;;;22.17;2.60;;;10.60;1.00;;;;;;5036534;28;20045;-45
2022/09/17 00:57:57;;;;;;;19.70;3.35;;;10.80;99.90;;;;;;5036995;28;20073;-46
2022/09/17 01:00:23;;;;;;;13.85;2.97;;;11.10;99.90;;;;;;5036404;28;20095;-46
2022/09/17 01:02:52;;;;;;;16.98;3.03;;;11.20;1.00;;;;;;5035741;28;20168;-44
2022/09/17 01:05:24;;;;;;;18.10;2.08;;;11.30;99.90;;;;;;5035111;28;20049;-44
2022/09/17 01:08:04;;;;;;;17.85;2.08;;;11.20;99.90;;;;;;5036305;28;20107;-48
2022/09/17 01:10:51;;;;;;;18.23;1.95;;;11.40;1.00;;;;;;5036229;28;20057;-46
2022/09/17 01:13:38;;;;;;;11.35;2.40;;;11.40;1.00;;;;;;5035043;28;20056;-49
2022/09/17 01:16:45;;;;;;;11.35;2.10;;;11.50;1.00;;;;;;5036084;28;20049;-47
2022/09/17 01:19:11;;;;;;;15.63;2.28;;;11.60;99.90;;;;;;5028310;28;20516;-46
2022/09/17 01:21:48;;;;;;;11.68;2.00;;;11.60;1.00;;;;;;5036246;28;20049;-48
2022/09/17 01:24:35;;;;;;;18.65;3.15;;;11.60;1.00;;;;;;5034825;28;20052;-47
2022/09/17 01:27:38;;;;;;;14.70;1.73;;;11.60;99.90;;;;;;5035912;28;20439;-55
2022/09/17 01:30:58;;;;;;;12.65;2.20;;;11.60;99.90;;;;;;5035810;28;20049;-48
2022/09/17 01:34:00;;;;;;;12.65;2.72;;;11.60;99.90;;;;;;5014197;28;20054;-47
2022/09/17 01:36:38;;;;;;;17.23;3.10;;;11.50;99.90;;;;;;5036316;28;20115;-50
2022/09/17 01:39:28;;;;;;;17.20;3.13;;;11.50;99.90;;;;;;5035092;28;20103;-51
2022/09/17 01:42:12;;;;;;;23.25;2.42;;;11.50;1.00;;;;;;5035919;28;20404;-51
2022/09/17 01:44:49;;;;;;;17.50;2.58;;;11.40;1.00;;;;;;5035632;28;20499;-52
2022/09/17 01:47:29;;;;;;;9.40;2.25;;;11.50;1.00;;;;;;5035521;28;20245;-56
2022/09/17 01:50:02;;;;;;;13.35;2.03;;;11.60;99.90;;;;;;5035520;28;20061;-52
2022/09/17 01:52:33;;;;;;;11.98;1.15;;;11.70;99.90;;;;;;5036006;28;20049;-53
2022/09/17 01:55:02;;;;;;;10.88;1.60;;;11.70;99.90;;;;;;5036002;28;20432;-50
2022/09/17 01:57:35;;;;;;;15.93;1.83;;;11.70;99.90;;;;;;5034380;28;20085;-56
2022/09/17 02:00:27;;;;;;;10.20;1.85;;;11.60;94.30;;;;;;5036176;28;20046;-50
2022/09/17 02:03:01;;;;;;;15.40;2.40;;;11.50;1.00;;;;;;5034883;28;20395;-54
2022/09/17 02:05:43;;;;;;;14.05;2.15;;;11.40;99.90;;;;;;5035780;28;20132;-51
2022/09/17 02:08:14;;;;;;;18.08;2.72;;;11.30;99.90;;;;;;5035725;28;20053;-57
2022/09/17 02:10:46;;;;;;;10.98;2.03;;;11.30;99.90;;;;;;5034427;28;20049;-57
2022/09/17 02:13:26;;;;;;;13.52;3.22;;;11.20;99.90;;;;;;5033903;28;20033;-44
2022/09/17 02:15:59;;;;;;;11.52;2.00;;;11.60;99.90;;;;;;5034746;28;20187;-55
2022/09/17 02:18:44;;;;;;;13.02;1.90;;;11.70;80.90;;;;;;5034357;28;20056;-44
2022/09/17 02:21:20;;;;;;;10.00;1.42;;;11.10;1.00;;;;;;5035510;28;20055;-45
2022/09/17 02:23:56;;;;;;;10.50;1.83;;;10.60;99.90;;;;;;5034566;28;20546;-47
2022/09/17 02:26:25;;;;;;;12.38;2.08;;;10.60;99.90;;;;;;5034114;28;20049;-52
2022/09/17 02:28:57;;;;;;;18.65;2.42;;;10.50;1.00;;;;;;5034736;28;20049;-49
2022/09/17 02:31:23;;;;;;;17.95;3.45;;;10.00;1.00;;;;;;5034773;28;20045;-56
2022/09/17 02:33:54;;;;;;;11.75;2.13;;;10.20;1.00;;;;;;5017311;28;20129;-55
2022/09/17 02:36:20;;;;;;;14.10;1.80;;;10.30;1.00;;;;;;5035280;28;20076;-54
2022/09/17 02:38:46;;;;;;;11.30;1.70;;;10.20;1.00;;;;;;5033297;28;20050;-51
2022/09/17 02:41:29;;;;;;;18.27;2.20;;;10.10;1.00;;;;;;5033587;28;20038;-52
2022/09/17 02:44:29;;;;;;;13.07;1.90;;;9.90;1.00;;;;;;5034611;28;20060;-52
2022/09/17 02:47:33;;;;;;;14.93;2.22;;;10.10;17.40;;;;;;5034628;28;20146;-49
2022/09/17 02:50:14;;;;;;;11.65;2.30;;;10.40;1.00;;;;;;5034974;28;20048;-57
2022/09/17 02:52:57;;;;;;;16.60;2.50;;;10.40;1.00;;;;;;5035095;28;20041;-56
2022/09/17 02:55:35;;;;;;;12.18;2.25;;;10.60;1.00;;;;;;5050862;28;20195;-54
2022/09/17 02:58:04;;;;;;;20.33;3.20;;;10.80;99.90;;;;;;5035029;28;20103;-53
2022/09/17 03:00:30;;;;;;;18.45;2.58;;;10.80;99.90;;;;;;5033353;28;20391;-56
2022/09/17 03:03:09;;;;;;;16.20;2.92;;;10.90;99.90;;;;;;5017548;28;20049;-53
2022/09/17 03:05:37;;;;;;;11.57;1.63;;;10.70;99.90;;;;;;5033153;28;20053;-55
2022/09/17 03:08:06;;;;;;;13.43;2.30;;;10.70;99.90;;;;;;5034016;28;20042;-51
2022/09/17 03:10:32;;;;;;;14.02;2.35;;;10.60;82.00;;;;;;5034255;28;20064;-54
2022/09/17 03:12:58;;;;;;;15.23;1.88;;;10.80;1.00;;;;;;5034660;28;20135;-55
2022/09/17 03:15:24;;;;;;;13.88;2.28;;;10.80;1.00;;;;;;5033925;28;20136;-48
2022/09/17 03:17:50;;;;;;;19.02;3.47;;;10.90;94.30;;;;;;5034490;28;20053;-40
2022/09/17 03:20:16;;;;;;;12.57;2.08;;;10.80;99.90;;;;;;5033913;28;20487;-34
2022/09/17 03:22:42;;;;;;;10.55;1.58;;;10.60;99.90;;;;;;5032807;28;20054;-37
2022/09/17 03:25:08;;;;;;;9.65;1.40;;;9.80;1.00;;;;;;4999769;28;20045;-36
2022/09/17 03:27:34;;;;;;;15.18;2.28;;;9.70;99.90;;;;;;5034008;28;20068;-35
2022/09/17 03:30:00;;;;;;;17.75;1.95;;;9.10;99.90;;;;;;5033711;28;20487;-36
2022/09/17 03:32:25;;;;;;;13.65;3.05;;;8.80;99.90;;;;;;5016239;28;20057;-36
2022/09/17 03:34:53;;;;;;;11.80;1.98;;;9.80;99.90;;;;;;5033589;28;20050;-37
2022/09/17 03:37:19;;;;;;;17.30;2.47;;;9.80;99.90;;;;;;5032449;28;20045;-37
2022/09/17 03:39:45;;;;;;;17.92;2.95;;;9.80;99.90;;;;;;5034415;28;20053;-40
2022/09/17 03:42:10;;;;;;;14.38;3.28;;;10.00;88.10;;;;;;5033385;28;20049;-38
2022/09/17 03:44:36;;;;;;;17.25;2.67;;;9.80;1.00;;;;;;5033624;28;20056;-39
2022/09/17 03:47:02;;;;;;;18.27;3.15;;;9.70;1.00;;;;;;5033899;28;20048;-43
2022/09/17 03:49:28;;;;;;;14.45;2.72;;;10.10;99.90;;;;;;5032215;28;20041;-39
2022/09/17 03:51:53;;;;;;;24.17;3.00;;;10.10;99.90;;;;;;5034023;28;20175;-43
2022/09/17 03:54:19;;;;;;;23.83;2.97;;;10.10;99.90;;;;;;5033405;28;20041;-42
2022/09/17 03:56:45;;;;;;;22.63;2.78;;;9.70;99.90;;;;;;5033135;28;20219;-38
2022/09/17 03:59:11;;;;;;;20.67;3.25;;;9.50;99.90;;;;;;5033705;28;20051;-41
2022/09/17 04:01:36;;;;;;;12.05;3.17;;;9.30;99.90;;;;;;5033394;28;20551;-42
2022/09/17 04:04:03;;;;;;;20.13;2.45;;;9.40;99.90;;;;;;5033377;28;20050;-40
2022/09/17 04:06:28;;;;;;;15.65;3.38;;;9.20;99.90;;;;;;5033037;28;20426;-41
2022/09/17 04:08:55;;;;;;;17.15;2.63;;;9.50;99.90;;;;;;5032382;28;20054;-41
2022/09/17 04:11:21;;;;;;;16.15;2.22;;;9.30;99.90;;;;;;5035980;28;20056;-45
2022/09/17 04:13:47;;;;;;;14.43;2.55;;;9.60;1.00;;;;;;5036410;28;20044;-43
2022/09/17 04:16:13;;;;;;;16.13;2.45;;;9.80;99.90;;;;;;5037306;28;20050;-44
2022/09/17 04:18:39;;;;;;;13.48;2.33;;;9.90;99.90;;;;;;5037353;28;20098;-49
2022/09/17 04:21:05;;;;;;;14.20;2.30;;;9.80;99.90;;;;;;5037148;28;20124;-51
2022/09/17 04:23:31;;;;;;;15.43;1.80;;;10.00;1.00;;;;;;5037298;28;20555;-49
2022/09/17 04:25:57;;;;;;;17.70;2.03;;;10.00;1.00;;;;;;5037210;28;20049;-46
2022/09/17 04:28:22;;;;;;;19.17;1.92;;;10.00;1.00;;;;;;5035966;28;20080;-47
2022/09/17 04:30:48;;;;;;;13.80;2.75;;;9.90;1.00;;;;;;5037134;28;20049;-49
2022/09/17 04:33:14;;;;;;;11.32;1.67;;;10.10;99.90;;;;;;5037048;28;20060;-51
2022/09/17 04:35:40;;;;;;;13.15;1.92;;;10.20;1.00;;;;;;5036422;28;20056;-48
2022/09/17 04:38:07;;;;;;;14.27;2.35;;;10.30;99.90;;;;;;5019589;28;20049;-52
2022/09/17 04:40:33;;;;;;;18.92;2.40;;;10.70;99.90;;;;;;5037496;28;20431;-55
2022/09/17 04:43:01;;;;;;;14.63;3.25;;;10.60;99.90;;;;;;5035851;28;20073;-55
2022/09/17 04:45:29;;;;;;;13.57;2.25;;;10.70;65.90;;;;;;5037381;28;20060;-48
2022/09/17 04:47:55;;;;;;;20.23;2.42;;;10.60;91.40;;;;;;5037301;28;20045;-56
2022/09/17 04:50:21;;;;;;;9.75;2.38;;;10.60;99.90;;;;;;5035625;28;20045;-50
2022/09/17 04:52:47;;;;;;;12.27;1.80;;;10.50;65.40;;;;;;5036478;28;20487;-52
2022/09/17 04:55:14;;;;;;;13.82;2.22;;;10.60;1.00;;;;;;5035408;28;20052;-54
2022/09/17 04:57:51;;;;;;;19.65;2.75;;;10.70;1.00;;;;;;5036462;28;20527;-53
2022/09/17 05:00:18;;;;;;;17.50;2.55;;;10.80;1.00;;;;;;5037155;28;20049;-56
2022/09/17 05:02:49;;;;;;;12.68;2.58;;;10.80;99.90;;;;;;5036532;28;20493;-56
2022/09/17 05:05:16;;;;;;;12.05;2.28;;;10.90;99.90;;;;;;5035482;28;20064;-51
2022/09/17 05:07:42;;;;;;;9.93;1.90;;;11.00;99.90;;;;;;5036448;28;20060;-56
2022/09/17 05:10:09;;;;;;;18.30;2.55;;;11.10;99.90;;;;;;5037209;28;20053;-57
2022/09/17 05:12:34;;;;;;;10.70;1.58;;;11.10;99.90;;;;;;5035371;28;20041;-54
2022/09/17 05:15:00;;;;;;;11.43;2.17;;;11.20;99.90;;;;;;5035331;28;20053;-54
2022/09/17 05:17:26;;;;;;;12.73;1.70;;;11.30;99.90;;;;;;5035371;28;20124;-55
2022/09/17 05:19:52;;;;;;;20.95;3.35;;;11.20;99.90;;;;;;5036772;28;20041;-53
2022/09/17 05:22:18;;;;;;;12.95;2.42;;;11.00;99.90;;;;;;5034024;28;20483;-45
2022/09/17 05:24:44;;;;;;;19.73;2.80;;;10.80;1.00;;;;;;5035552;28;20045;-49
2022/09/17 05:27:10;;;;;;;22.15;3.50;;;10.90;1.00;;;;;;5035076;28;20060;-53
2022/09/17 05:29:36;;;;;;;7.70;1.55;;;10.90;99.90;;;;;;5036071;28;20053;-51
2022/09/17 05:32:03;;;;;;;9.95;1.90;;;10.70;99.90;;;;;;5034857;28;20037;-55
2022/09/17 05:34:28;;;;;;;17.52;2.55;;;10.60;1.00;;;;;;5035001;28;20085;-55
2022/09/17 05:36:54;;;;;;;9.93;1.70;;;10.50;1.00;;;;;;5035617;28;20237;-51
2022/09/17 05:39:24;;;;;;;10.57;1.40;;;10.20;1.00;;;;;;5034710;28;20045;-53
2022/09/17 05:41:51;;;;;;;8.70;1.33;;;10.10;1.00;;;;;;5034849;28;20049;-45
2022/09/17 05:44:18;;;;;;;8.60;1.02;;;9.80;1.00;;;;;;5035845;28;20058;-46
2022/09/17 05:46:44;;;;;;;9.65;0.95;;;9.80;1.00;;;;;;5034373;28;20111;-46
2022/09/17 05:49:10;;;;;;;8.98;1.25;;;9.70;1.00;;;;;;5035660;28;20133;-45
2022/09/17 05:51:36;;;;;;;10.13;0.93;;;9.40;99.90;;;;;;5036010;28;20081;-51
2022/09/17 05:54:01;;;;;;;4.70;0.95;;;9.70;1.00;;;;;;5034441;28;20128;-51
2022/09/17 05:56:27;;;;;;;11.52;1.60;;;9.10;1.00;;;;;;5035560;28;20137;-54
2022/09/17 05:58:56;;;;;;;9.40;1.10;;;9.80;1.00;;;;;;5035572;28;20088;-46
2022/09/17 06:01:22;;;;;;;5.28;0.77;;;9.70;1.00;;;;;;5034286;28;20050;-53
2022/09/17 06:03:48;;;;;;;7.15;1.38;;;9.40;1.00;;;;;;5034686;28;20045;-51
2022/09/17 06:06:14;;;;;;;11.73;2.35;;;9.90;1.00;;;;;;5035350;28;20099;-55
2022/09/17 06:08:40;;;;;;;13.73;2.03;;;9.80;99.90;;;;;;5035348;28;20053;-35
2022/09/17 06:11:06;;;;;;;14.70;2.28;;;8.70;1.00;;;;;;5001604;28;20061;-33
2022/09/17 06:13:33;;;;;;;14.20;1.88;;;8.70;1.00;;;;;;5034087;28;20045;-43
2022/09/17 06:16:00;;;;;;;17.05;2.45;;;9.10;1.00;;;;;;5035198;28;20045;-47
2022/09/17 06:18:28;;;;;;;11.40;2.15;;;9.20;1.00;;;;;;5034197;28;20088;-45
2022/09/17 06:20:57;;;;;;;7.95;1.30;;;9.80;1.00;;;;;;5033578;28;20419;-45
2022/09/17 06:23:23;;;;;;;8.50;1.20;;;8.60;99.90;;;;;;5034866;28;20111;-38
2022/09/17 06:25:54;;;;;;;11.70;1.50;;;9.60;99.90;;;;;;5034822;28;20049;-36
2022/09/17 06:28:20;;;;;;;9.50;1.38;;;9.70;99.90;;;;;;5034995;28;20080;-35
2022/09/17 06:30:46;;;;;;;6.30;0.75;;;8.80;99.90;;;;;;5035417;28;20076;-35
2022/09/17 06:33:12;;;;;;;6.72;0.68;;;10.00;1.00;;;;;;5035249;28;20057;-37
2022/09/17 06:35:37;;;;;;;6.95;1.90;;;10.20;1.00;;;;;;5034756;28;20053;-37
2022/09/17 06:38:04;;;;;;;13.73;1.42;;;9.60;99.90;;;;;;5033567;28;20052;-32
2022/09/17 06:40:30;;;;;;;11.05;1.80;;;9.60;38.70;;;;;;5033530;28;20052;-34
2022/09/17 06:43:00;;;;;;;7.38;1.45;;;9.60;99.90;;;;;;5033406;28;20488;-36
2022/09/17 06:45:26;;;;;;;14.40;2.83;;;9.40;99.90;;;;;;5034576;28;20135;-34
2022/09/17 06:47:52;;;;;;;16.08;1.70;;;10.20;80.90;;;;;;5034465;28;20120;-35
2022/09/17 06:50:18;;;;;;;13.93;1.65;;;9.80;1.00;;;;;;5035047;28;20050;-35
2022/09/17 06:52:51;;;;;;;10.70;1.70;;;10.30;99.90;;;;;;5033393;28;20049;-33
2022/09/17 06:55:18;;;;;;;16.50;2.63;;;10.10;1.00;;;;;;5034409;28;20046;-33
2022/09/17 06:57:44;;;;;;;17.98;2.97;;;10.80;19.90;;;;;;5034903;28;20081;-34
2022/09/17 07:00:11;;;;;;;20.73;2.72;;;11.30;99.90;;;;;;5033364;28;20045;-32
2022/09/17 07:02:37;;;;;;;15.82;2.50;;;11.80;99.90;;;;;;5033971;28;20495;-34
2022/09/17 07:05:04;;;;;;;11.88;1.92;;;11.80;99.90;;;;;;5034300;28;20049;-34
2022/09/17 07:07:30;;;;;;;14.18;1.70;;;11.00;1.00;;;;;;5033221;28;20124;-34
2022/09/17 07:09:56;;;;;;;11.23;1.95;;;11.20;99.90;;;;;;5034186;28;20147;-34
2022/09/17 07:12:21;;;;;;;12.00;1.70;;;12.00;80.80;;;;;;5033186;28;20085;-34
2022/09/17 07:14:47;;;;;;;8.27;1.55;;;11.60;14.90;;;;;;5033432;28;20045;-34
2022/09/17 07:17:13;;;;;;;12.55;1.60;;;11.20;1.00;;;;;;5033917;28;20046;-34
2022/09/17 07:19:39;;;;;;;12.00;1.20;;;11.60;1.00;;;;;;5034028;28;20136;-34
2022/09/17 07:22:05;;;;;;;6.03;1.13;;;11.50;1.00;;;;;;5034037;28;20088;-34
2022/09/17 07:24:31;;;;;;;10.70;1.40;;;11.30;70.30;;;;;;5016528;28;20468;-35
2022/09/17 07:26:57;;;;;;;12.43;1.77;;;11.60;1.00;;;;;;5033777;28;20132;-34
2022/09/17 07:29:26;;;;;;;11.68;1.30;;;12.20;1.00;;;;;;5034485;28;20129;-35
2022/09/17 07:31:55;;;;;;;7.93;1.63;;;11.70;99.90;;;;;;5033346;28;20049;-34
2022/09/17 07:34:20;;;;;;;12.82;2.55;;;11.60;96.90;;;;;;5016286;28;20045;-37
2022/09/17 07:36:46;;;;;;;9.68;1.48;;;12.30;99.90;;;;;;5034339;28;20111;-36
2022/09/17 07:39:12;;;;;;;8.60;1.50;;;12.10;99.90;;;;;;5034071;28;20553;-36
2022/09/17 07:41:39;;;;;;;9.63;2.35;;;12.30;99.90;;;;;;5033714;28;20045;-36
2022/09/17 07:44:06;;;;;;;11.38;2.55;;;12.50;1.00;;;;;;5034297;28;20049;-36
2022/09/17 07:46:32;;;;;;;14.45;1.42;;;12.80;1.00;;;;;;5032902;28;20476;-37
2022/09/17 07:48:59;;;;;;;9.88;1.80;;;13.30;99.90;;;;;;5032618;28;20045;-37
2022/09/17 07:51:28;;;;;;;16.13;2.10;;;13.20;1.00;;;;;;4999940;28;20495;-37
2022/09/17 07:53:56;;;;;;;9.35;1.90;;;13.00;1.00;;;;;;5032497;28;20049;-43
2022/09/17 07:56:23;;;;;;;24.35;3.65;;;12.70;99.90;;;;;;5033581;28;20049;-33
2022/09/17 07:58:50;;;;;;;13.45;2.20;;;11.40;99.90;;;;;;5033152;28;20099;-32
2022/09/17 08:01:16;;;;;;;10.57;1.60;;;8.30;99.90;;;;;;5033519;28;20072;-40
2022/09/17 08:03:47;;;;;;;11.00;1.40;;;11.50;99.90;;;;;;5033526;28;20052;-41
2022/09/17 08:06:15;;;;;;;10.85;2.78;;;11.60;99.90;;;;;;5034396;28;20059;-40
2022/09/17 08:08:41;;;;;;;8.65;1.98;;;11.30;99.90;;;;;;5016634;28;20053;-32
2022/09/17 08:11:10;;;;;;;13.43;2.05;;;8.50;99.90;;;;;;5033214;28;20045;-33
2022/09/17 08:13:36;;;;;;;13.50;1.80;;;9.70;99.90;;;;;;5033934;28;20195;-35
2022/09/17 08:16:08;;;;;;;15.48;1.85;;;8.70;99.90;;;;;;5033390;28;20045;-36
2022/09/17 08:18:34;;;;;;;12.20;1.60;;;8.90;99.90;;;;;;5033438;28;20045;-34
2022/09/17 08:21:02;;;;;;;16.33;2.10;;;10.70;99.90;;;;;;5033394;28;20408;-39
2022/09/17 08:23:29;;;;;;;13.75;1.42;;;9.60;99.90;;;;;;5033343;28;20049;-37
2022/09/17 08:25:57;;;;;;;12.48;3.08;;;10.00;99.90;;;;;;5033809;28;20056;-38
2022/09/17 08:28:24;;;;;;;16.08;2.05;;;10.70;99.90;;;;;;5032116;28;20045;-38
2022/09/17 08:30:51;;;;;;;15.82;1.60;;;10.40;99.90;;;;;;5032314;28;20446;-40
2022/09/17 08:33:17;;;;;;;21.48;2.90;;;11.10;99.90;;;;;;5032875;28;20476;-40
2022/09/17 08:35:53;;;;;;;12.38;1.80;;;11.10;99.90;;;;;;5033241;28;20049;-41
2022/09/17 08:38:19;;;;;;;12.32;2.08;;;11.90;99.90;;;;;;5032779;28;20049;-42
2022/09/17 08:41:15;;;;;;;16.73;2.70;;;11.80;99.90;;;;;;5033121;28;20150;-42
2022/09/17 08:44:05;;;;;;;11.13;1.52;;;11.70;99.90;;;;;;5021170;28;20054;-38
2022/09/17 08:46:52;;;;;;;16.60;2.13;;;11.30;99.90;;;;;;5033162;28;20396;-31
2022/09/17 08:49:43;;;;;;;10.68;1.83;;;10.80;99.90;;;;;;5021785;28;20053;-32
2022/09/17 08:52:18;;;;;;;12.20;1.27;;;10.40;99.90;;;;;;5032572;28;20041;-37
2022/09/17 08:55:22;;;;;;;8.48;1.00;;;10.30;99.90;;;;;;5032748;28;20484;-36
2022/09/17 08:58:06;;;;;;;7.22;1.10;;;10.30;99.90;;;;;;5034942;28;20068;-34
2022/09/17 09:00:54;;;;;;;7.13;1.13;;;10.50;1.00;;;;;;5036636;28;20072;-38
2022/09/17 09:03:54;;;;;;;12.40;1.90;;;10.80;99.90;;;;;;5037393;28;20046;-37
2022/09/17 09:06:25;;;;;;;13.88;2.22;;;11.10;1.00;;;;;;5035905;28;20137;-38
2022/09/17 09:09:02;;;;;;;13.73;1.73;;;11.10;1.00;;;;;;5036673;28;20068;-39
2022/09/17 09:11:30;;;;;;;18.77;1.92;;;11.20;1.00;;;;;;5036468;28;20092;-38
2022/09/17 09:14:09;;;;;;;13.90;2.15;;;11.20;6.60;;;;;;5036284;28;20064;-39
2022/09/17 09:16:40;;;;;;;14.07;1.80;;;11.80;1.00;;;;;;5036372;28;20042;-40
2022/09/17 09:19:25;;;;;;;9.95;1.80;;;12.90;99.90;;;;;;5035154;28;20060;-41
2022/09/17 09:22:02;;;;;;;12.23;2.10;;;13.50;1.00;;;;;;5035856;28;20376;-42
2022/09/17 09:24:54;;;;;;;9.93;1.73;;;14.20;1.00;;;;;;5036205;28;20088;-31
2022/09/17 09:27:43;;;;;;;14.38;3.38;;;11.10;1.00;;;;;;5036214;28;20052;-30
2022/09/17 09:30:12;;;;;;;13.77;2.30;;;9.50;99.90;;;;;;5036089;28;20115;-32
2022/09/17 09:32:57;;;;;;;19.50;2.53;;;9.30;99.90;;;;;;5035923;28;20128;-31
2022/09/17 09:35:32;;;;;;;16.75;2.25;;;10.70;99.90;;;;;;5034796;28;20480;-32
2022/09/17 09:38:17;;;;;;;14.50;1.77;;;10.70;99.90;;;;;;5034656;28;20479;-32
2022/09/17 09:40:52;;;;;;;7.03;1.40;;;10.10;99.90;;;;;;5035896;28;20476;-32
2022/09/17 09:43:45;;;;;;;14.23;1.50;;;10.90;99.90;;;;;;5035501;28;20049;-35
2022/09/17 09:46:37;;;;;;;12.40;1.48;;;11.90;99.90;;;;;;5035217;28;20076;-35
2022/09/17 09:49:27;;;;;;;12.98;3.10;;;12.90;99.90;;;;;;5036521;28;20094;-38
2022/09/17 09:52:10;;;;;;;11.00;1.75;;;13.30;99.90;;;;;;5035680;28;20089;-38
2022/09/17 09:54:48;;;;;;;10.90;2.10;;;13.40;27.40;;;;;;5035481;28;20104;-41
2022/09/17 09:57:18;;;;;;;11.85;1.85;;;13.20;1.00;;;;;;5036187;28;20435;-41
2022/09/17 09:59:43;;;;;;;10.30;1.90;;;13.10;1.00;;;;;;5035488;28;20046;-42
2022/09/17 10:02:10;;;;;;;14.20;2.25;;;13.70;9.60;;;;;;5035482;28;20046;-41
2022/09/17 10:04:36;;;;;;;10.20;1.92;;;14.50;99.90;;;;;;5035065;28;20476;-42
2022/09/17 10:07:08;;;;;;;11.93;2.08;;;14.80;1.00;;;;;;5036198;28;20080;-43
2022/09/17 10:09:36;;;;;;;10.02;1.65;;;15.20;99.90;;;;;;5034029;28;20053;-42
2022/09/17 10:12:07;;;;;;;11.02;2.25;;;15.50;99.90;;;;;;5035526;28;20128;-42
2022/09/17 10:14:35;;;;;;;32.85;5.20;;;15.70;99.90;;;;;;5035151;28;20100;-42
2022/09/17 10:17:11;;;;;;;11.27;2.35;;;15.70;1.00;;;;;;5035430;28;20129;-42
2022/09/17 10:19:36;;;;;;;13.40;2.58;;;14.10;99.90;;;;;;5035092;28;20562;-41
2022/09/17 10:22:27;;;;;;;13.73;2.50;;;13.00;1.00;;;;;;5034654;28;20136;-40
2022/09/17 10:24:55;;;;;;;19.67;3.15;;;12.60;99.90;;;;;;5034597;28;20434;-42
2022/09/17 10:27:24;;;;;;;10.52;2.10;;;12.60;1.00;;;;;;5035793;28;20128;-38
2022/09/17 10:30:00;;;;;;;8.85;1.48;;;12.00;99.90;;;;;;5034963;28;20162;-32
2022/09/17 10:32:25;;;;;;;10.75;1.90;;;11.30;1.00;;;;;;5034908;28;20057;-38
2022/09/17 10:35:04;;;;;;;14.45;1.58;;;10.90;99.90;;;;;;5034388;28;20057;-38
2022/09/17 10:37:42;;;;;;;17.33;2.42;;;10.90;99.90;;;;;;5035352;28;20085;-33
2022/09/17 10:40:20;;;;;;;18.10;2.92;;;11.10;99.90;;;;;;5034747;28;20045;-34
2022/09/17 10:43:20;;;;;;;12.00;1.85;;;11.40;99.90;;;;;;5034194;28;20543;-37
2022/09/17 10:45:56;;;;;;;14.25;1.75;;;10.90;99.90;;;;;;5034683;28;20061;-36
2022/09/17 10:48:22;;;;;;;16.40;3.08;;;11.40;99.90;;;;;;5034552;28;20084;-39
2022/09/17 10:50:52;;;;;;;16.83;3.03;;;12.10;99.90;;;;;;5035060;28;20048;-38
2022/09/17 10:53:22;;;;;;;12.48;2.33;;;13.00;99.90;;;;;;5034402;28;20476;-40
2022/09/17 10:56:17;;;;;;;18.33;2.38;;;13.70;1.00;;;;;;5016998;28;20107;-40
2022/09/17 10:59:29;;;;;;;10.05;1.80;;;14.50;99.90;;;;;;5034983;28;20365;-41
2022/09/17 11:01:58;;;;;;;13.35;2.05;;;15.20;99.90;;;;;;5013141;28;20103;-42
2022/09/17 11:04:50;;;;;;;16.38;2.20;;;15.50;99.90;;;;;;5032372;28;20146;-41
2022/09/17 11:07:34;;;;;;;14.07;1.88;;;15.10;1.00;;;;;;5034876;28;20507;-42
2022/09/17 11:10:20;;;;;;;12.68;2.30;;;14.70;99.90;;;;;;5035097;28;20053;-41
2022/09/17 11:13:01;;;;;;;6.65;1.85;;;14.20;1.00;;;;;;5033867;28;20053;-42
2022/09/17 11:15:36;;;;;;;9.40;2.08;;;13.90;90.70;;;;;;5033227;28;20087;-43
2022/09/17 11:18:19;;;;;;;15.05;2.30;;;13.80;96.80;;;;;;5034107;28;20053;-42
2022/09/17 11:20:50;;;;;;;12.82;2.47;;;13.50;99.90;;;;;;5015971;28;20095;-42
2022/09/17 11:23:28;;;;;;;16.25;2.88;;;13.20;1.00;;;;;;5034015;28;20041;-42
2022/09/17 11:25:55;;;;;;;14.20;2.53;;;13.30;99.90;;;;;;5034321;28;20541;-42
2022/09/17 11:28:35;;;;;;;16.92;2.63;;;13.60;93.20;;;;;;5033905;28;20057;-43
2022/09/17 11:31:34;;;;;;;12.13;2.55;;;13.50;1.00;;;;;;5033240;28;20053;-42
2022/09/17 11:34:24;;;;;;;12.57;2.33;;;13.20;99.90;;;;;;5032642;28;20116;-44
2022/09/17 11:37:10;;;;;;;16.40;2.78;;;13.40;1.00;;;;;;5032899;28;20049;-43
2022/09/17 11:39:47;;;;;;;14.10;2.55;;;13.60;1.00;;;;;;5034386;28;20198;-43
2022/09/17 11:42:22;;;;;;;12.43;2.70;;;14.40;1.00;;;;;;5032829;28;20507;-46
2022/09/17 11:45:01;;;;;;;14.57;2.75;;;14.50;99.90;;;;;;5033404;28;20053;-44
2022/09/17 11:47:38;;;;;;;9.82;1.98;;;13.80;99.90;;;;;;5016584;28;20049;-46
2022/09/17 11:50:10;;;;;;;10.38;2.78;;;13.40;99.90;;;;;;5034286;28;20053;-46
2022/09/17 11:53:22;;;;;;;11.48;2.10;;;13.30;99.90;;;;;;5033358;28;20491;-46
2022/09/17 11:55:57;;;;;;;13.90;2.65;;;13.80;99.90;;;;;;5014531;28;20460;-46
2022/09/17 11:58:45;;;;;;;13.23;2.20;;;14.60;99.90;;;;;;5033294;28;20439;-45
2022/09/17 12:01:17;;;;;;;22.33;2.17;;;15.00;1.00;;;;;;5032947;28;20128;-39
2022/09/17 12:03:58;;;;;;;17.60;3.13;;;14.90;1.00;;;;;;5034153;28;20045;-38
2022/09/17 12:06:46;;;;;;;14.13;2.83;;;15.20;57.50;;;;;;5032976;28;20462;-39
2022/09/17 12:09:19;;;;;;;15.43;2.67;;;15.50;99.90;;;;;;5033502;28;20056;-41
2022/09/17 12:11:55;;;;;;;20.08;2.30;;;15.80;99.90;;;;;;5033523;28;20053;-36
2022/09/17 12:14:25;;;;;;;11.55;2.00;;;16.10;99.90;;;;;;5032879;28;20049;-40
2022/09/17 12:16:57;;;;;;;14.80;2.80;;;16.10;1.00;;;;;;5034000;28;20054;-39
2022/09/17 12:19:44;;;;;;;8.52;1.83;;;16.00;1.00;;;;;;5033947;28;20132;-37
2022/09/17 12:22:26;;;;;;;11.45;1.88;;;16.20;1.00;;;;;;5033373;28;20096;-38
2022/09/17 12:24:53;;;;;;;11.05;1.98;;;16.20;1.00;;;;;;5031823;28;20483;-44
2022/09/17 12:27:25;;;;;;;7.75;2.28;;;16.10;99.90;;;;;;5032265;28;20559;-43
2022/09/17 12:30:12;;;;;;;10.07;2.47;;;16.10;99.90;;;;;;5033506;28;20087;-39
2022/09/17 12:32:56;;;;;;;11.20;1.73;;;16.10;99.90;;;;;;5035911;28;20056;-40
2022/09/17 12:35:50;;;;;;;10.25;2.00;;;16.40;99.90;;;;;;5037728;28;20049;-39
2022/09/17 12:38:49;;;;;;;12.68;1.98;;;16.30;99.90;;;;;;5037265;28;20053;-41
2022/09/17 12:41:28;;;;;;;14.70;2.78;;;16.70;62.00;;;;;;5037315;28;20053;-42
2022/09/17 12:44:25;;;;;;;14.98;3.13;;;16.60;1.00;;;;;;5036868;28;20049;-48
2022/09/17 12:47:18;;;;;;;13.27;1.88;;;15.50;99.90;;;;;;5036499;28;20065;-43
2022/09/17 12:49:56;;;;;;;15.90;2.90;;;15.50;1.00;;;;;;5036904;28;20063;-48
2022/09/17 12:52:51;;;;;;;20.60;2.92;;;15.70;1.00;;;;;;5037642;28;20057;-45
2022/09/17 12:55:32;;;;;;;11.73;2.80;;;16.10;1.00;;;;;;5035500;28;20056;-46
2022/09/17 12:58:13;;;;;;;10.02;1.80;;;16.20;1.00;;;;;;5037059;28;20050;-46
2022/09/17 13:00:48;;;;;;;10.18;2.20;;;16.50;1.00;;;;;;5036046;28;20045;-44
2022/09/17 13:03:36;;;;;;;16.38;2.83;;;16.70;1.00;;;;;;5018846;28;20050;-47
2022/09/17 13:06:19;;;;;;;11.38;2.00;;;17.00;99.90;;;;;;5036261;28;20392;-53
2022/09/17 13:09:26;;;;;;;12.02;2.17;;;16.90;99.90;;;;;;5037345;28;20123;-52
2022/09/17 13:12:25;;;;;;;20.73;4.20;;;16.90;99.90;;;;;;5035931;28;20050;-54
2022/09/17 13:15:12;;;;;;;9.65;2.47;;;16.70;99.90;;;;;;5023696;28;20064;-45